CheckWX is a tool to help pilots better visualize weather data.  It is not intended as a substitute for an official pre-flight weather briefing.

21:06:37 UTC

KRYN METAR
Ryan Field Airport
Tucson, Arizona, USA
Current

22 mins ago

KRYN 202045Z 22018G25KT 10SM CLR 32/M06 A2989
Observed
Apr-20 @ 20:45 UTC
Wind
  • 220° at 18 KTS
  • Gusting to 25 KTS
Visibility
10 SM
Flight Rules
VFR
Cloud Levels
  • Clear skies
Temperature
32°C / 90°F
Dewpoint
-6°C / 21°F
Humidity
8%
Altimeter
29.89" Hg
Pressure
1012.22 hPa
Previous

1 hour ago

KRYN 201945Z 21020G29KT 10SM CLR 32/M05 A2990
Observed
Apr-20 @ 19:45 UTC
Wind
  • 210° at 20 KTS
  • Gusting to 29 KTS
Visibility
10 SM
Flight Rules
VFR
Cloud Levels
  • Clear skies
Temperature
32°C / 90°F
Dewpoint
-5°C / 23°F
Humidity
9%
Altimeter
29.9" Hg
Pressure
1012.52 hPa
Previous

2 hours ago

KRYN 201845Z 22021G27KT 10SM CLR 31/M05 A2991
Observed
Apr-20 @ 18:45 UTC
Wind
  • 220° at 21 KTS
  • Gusting to 27 KTS
Visibility
10 SM
Flight Rules
VFR
Cloud Levels
  • Clear skies
Temperature
31°C / 88°F
Dewpoint
-5°C / 23°F
Humidity
9%
Altimeter
29.91" Hg
Pressure
1012.92 hPa